Time;durP1;ratioP1;P1;durP2;ratioP2;P2;SDS_P1;SDS_P2;PMS_P1;PMS_P2;Temp;Humidity;BMP_temperature;BMP_pressure;BME280_temperature;BME280_humidity;BME280_pressure;Samples;Min_cycle;Max_cycle;Signal;HPM_P1;HPM_P2
2023/03/13 00:01:26;;;;;;;10.80;6.20;;;;;;;0.37;58.81;98703.45;1776866;79;20970;-71
2023/03/13 00:03:54;;;;;;;16.15;6.55;;;;;;;0.39;58.83;98699.55;1779952;79;21009;-71
2023/03/13 00:06:24;;;;;;;11.40;5.42;;;;;;;0.42;58.87;98708.45;1778962;79;21033;-72
2023/03/13 00:08:50;;;;;;;15.08;5.17;;;;;;;0.42;58.98;98690.48;1775211;79;21587;-69
2023/03/13 00:11:17;;;;;;;12.90;5.90;;;;;;;0.48;59.06;98690.78;1772466;79;21537;-72
2023/03/13 00:13:44;;;;;;;11.65;5.08;;;;;;;0.52;59.12;98688.12;1771723;80;20982;-72
2023/03/13 00:16:14;;;;;;;9.78;5.60;;;;;;;0.54;59.27;98692.79;1775938;78;21073;-70
2023/03/13 00:18:49;;;;;;;9.35;5.25;;;;;;;0.59;59.37;98692.69;1774830;79;21065;-72
2023/03/13 00:21:18;;;;;;;10.68;5.67;;;;;;;0.62;59.34;98686.20;1774928;79;21065;-72
2023/03/13 00:23:45;;;;;;;10.13;5.42;;;;;;;0.63;59.49;98688.71;1775451;79;21140;-73
2023/03/13 00:26:14;;;;;;;;;;;;;;;0.63;59.57;98700.27;1779877;78;21054;-72
2023/03/13 00:28:42;;;;;;;11.83;4.33;;;;;;;0.68;59.72;98699.34;1772437;79;20227;-64
2023/03/13 00:31:19;;;;;;;11.38;5.15;;;;;;;0.72;59.70;98694.52;1773604;79;21144;-72
2023/03/13 00:33:50;;;;;;;9.30;4.80;;;;;;;0.74;59.72;98696.62;1773139;79;21040;-72
2023/03/13 00:36:22;;;;;;;9.03;4.40;;;;;;;0.75;59.76;98698.30;1773591;79;21092;-72
2023/03/13 00:38:49;;;;;;;10.53;4.75;;;;;;;0.75;59.78;98690.59;1774649;79;21536;-70
2023/03/13 00:41:23;;;;;;;9.08;4.60;;;;;;;0.75;59.88;98677.73;1775746;79;21569;-68
2023/03/13 00:43:50;;;;;;;10.23;4.53;;;;;;;0.75;59.93;98668.75;1778379;78;21004;-72
2023/03/13 00:46:22;;;;;;;10.28;4.55;;;;;;;0.76;60.00;98664.03;1775539;78;21088;-72
2023/03/13 00:48:49;;;;;;;11.78;4.78;;;;;;;0.76;60.04;98662.30;1774480;79;21089;-72
2023/03/13 00:51:18;;;;;;;9.40;5.10;;;;;;;0.75;60.01;98644.33;1774675;79;21180;-66
2023/03/13 00:53:44;;;;;;;16.25;6.90;;;;;;;0.72;60.06;98636.26;1777857;78;21096;-72
2023/03/13 00:56:15;;;;;;;14.47;6.40;;;;;;;0.72;60.08;98631.56;1771347;79;21089;-72
2023/03/13 00:58:45;;;;;;;11.22;5.47;;;;;;;0.69;60.14;98623.94;1775051;78;21077;-73
2023/03/13 01:01:16;;;;;;;7.85;4.42;;;;;;;0.69;60.28;98620.08;1773851;79;21057;-72
2023/03/13 01:03:48;;;;;;;7.20;3.95;;;;;;;0.71;60.32;98613.19;1773185;78;21163;-73
2023/03/13 01:06:19;;;;;;;12.68;4.87;;;;;;;0.64;60.33;98609.50;1772616;79;20998;-73
2023/03/13 01:08:47;;;;;;;10.93;4.47;;;;;;;0.64;60.52;98600.92;1770336;79;21093;-70
2023/03/13 01:11:24;;;;;;;7.83;4.58;;;;;;;0.64;60.58;98591.52;1775822;79;21058;-72
2023/03/13 01:13:55;;;;;;;9.20;4.40;;;;;;;0.60;60.67;98584.75;1773136;79;21128;-72
2023/03/13 01:16:23;;;;;;;10.38;4.80;;;;;;;0.59;60.82;98589.50;1777641;79;22155;-72
2023/03/13 01:18:54;;;;;;;12.85;4.58;;;;;;;0.61;60.98;98585.14;1773429;79;21141;-70
2023/03/13 01:21:23;;;;;;;11.20;5.10;;;;;;;0.63;61.04;98585.95;1775502;79;21070;-71
2023/03/13 01:23:52;;;;;;;9.23;5.10;;;;;;;0.63;61.17;98576.96;1780587;79;21038;-72
2023/03/13 01:26:19;;;;;;;10.00;5.10;;;;;;;0.61;61.14;98573.58;1774413;80;21097;-73
2023/03/13 01:28:46;;;;;;;11.65;5.05;;;;;;;0.56;61.17;98567.74;1772351;79;21006;-73
2023/03/13 01:31:19;;;;;;;12.80;7.40;;;;;;;0.51;61.30;98554.17;1771324;79;21461;-73
2023/03/13 01:33:49;;;;;;;10.93;5.78;;;;;;;0.45;61.47;98549.19;1772344;79;21037;-73
2023/03/13 01:36:17;;;;;;;12.20;5.28;;;;;;;0.42;61.63;98549.23;1771261;79;21072;-68
2023/03/13 01:38:50;;;;;;;16.42;5.65;;;;;;;0.39;61.84;98551.89;1771359;79;20999;-73
2023/03/13 01:41:19;;;;;;;16.42;6.05;;;;;;;0.37;61.85;98544.23;1776227;79;21003;-73
2023/03/13 01:43:47;;;;;;;9.08;4.83;;;;;;;0.34;62.16;98553.75;1772029;79;20995;-61
2023/03/13 01:46:18;;;;;;;11.20;5.72;;;;;;;0.31;62.12;98553.80;1773923;79;21135;-73
2023/03/13 01:48:53;;;;;;;14.18;5.35;;;;;;;0.28;62.24;98552.59;1772652;79;21051;-72
2023/03/13 01:51:25;;;;;;;13.68;5.40;;;;;;;0.26;62.42;98541.09;1768402;79;21438;-72
2023/03/13 01:54:12;;;;;;;9.53;5.55;;;;;;;0.27;62.45;98543.22;1773128;79;20931;-73
2023/03/13 01:57:00;;;;;;;9.63;5.45;;;;;;;0.28;62.67;98525.63;1772256;79;21622;-64
2023/03/13 02:02:04;;;;;;;10.53;5.85;;;;;;;0.36;63.06;98526.29;1699532;80;21131;-73
2023/03/13 02:04:37;;;;;;;10.80;5.05;;;;;;;0.41;63.03;98530.87;1696392;83;20972;-74
2023/03/13 02:07:14;;;;;;;8.85;4.58;;;;;;;0.48;63.16;98529.84;1736080;81;21026;-66
2023/03/13 02:09:44;;;;;;;8.43;5.22;;;;;;;0.54;63.33;98543.81;1727102;81;21013;-72
2023/03/13 02:12:14;;;;;;;10.95;4.92;;;;;;;0.61;63.39;98547.05;1738979;80;21671;-73
2023/03/13 02:14:44;;;;;;;9.80;5.40;;;;;;;0.68;63.46;98545.19;1701041;84;21544;-73
2023/03/13 02:17:12;;;;;;;13.40;6.33;;;;;;;0.72;63.53;98533.94;1676189;84;21028;-72
2023/03/13 02:19:48;;;;;;;9.68;5.72;;;;;;;0.73;63.70;98540.75;1728546;81;21570;-73
2023/03/13 02:22:47;;;;;;;11.10;5.95;;;;;;;0.75;63.80;98534.69;1740837;81;20951;-73
2023/03/13 02:25:31;;;;;;;9.75;5.22;;;;;;;0.79;63.85;98538.05;1733485;80;21610;-71
2023/03/13 02:28:03;;;;;;;11.25;5.70;;;;;;;0.82;63.91;98532.82;1734685;80;22049;-68
2023/03/13 02:30:29;;;;;;;10.08;5.40;;;;;;;0.82;64.02;98521.25;1700579;83;20979;-73
2023/03/13 02:33:00;;;;;;;13.53;5.62;;;;;;;0.84;64.10;98522.03;1688161;82;21014;-73
2023/03/13 02:35:29;;;;;;;10.48;5.55;;;;;;;0.83;64.17;98521.64;1736050;80;21571;-64
2023/03/13 02:38:00;;;;;;;10.48;5.65;;;;;;;0.84;64.21;98522.91;1734714;80;21026;-73
2023/03/13 02:40:31;;;;;;;11.20;5.92;;;;;;;0.85;64.39;98519.88;1735396;80;21477;-73
2023/03/13 02:43:03;;;;;;;11.25;6.42;;;;;;;0.86;64.53;98516.42;1695831;84;20982;-62
2023/03/13 02:45:30;;;;;;;10.03;6.03;;;;;;;0.84;64.55;98505.33;1700534;84;21062;-68
2023/03/13 02:47:57;;;;;;;15.23;6.90;;;;;;;0.83;64.59;98503.66;1733701;81;21057;-65
2023/03/13 02:50:24;;;;;;;12.15;6.92;;;;;;;0.81;64.78;98495.14;1715500;81;21056;-72
2023/03/13 02:53:01;;;;;;;12.35;6.28;;;;;;;0.80;64.85;98494.75;1737467;80;21019;-66
2023/03/13 02:55:39;;;;;;;;;;;;;;;0.79;64.97;98490.06;1701617;83;21042;-69
2023/03/13 02:58:07;;;;;;;11.25;6.35;;;;;;;0.80;65.09;98478.05;1735587;81;20111;-69
2023/03/13 03:00:37;;;;;;;11.83;6.35;;;;;;;0.81;65.02;98477.16;1730075;80;21050;-70
2023/03/13 03:03:04;;;;;;;12.73;7.08;;;;;;;0.78;65.22;98461.83;1733099;80;21033;-73
2023/03/13 03:05:30;;;;;;;15.87;7.60;;;;;;;0.77;65.44;98460.98;1735681;80;21512;-73
2023/03/13 03:07:57;;;;;;;11.40;6.42;;;;;;;0.75;65.43;98467.05;1739150;80;21536;-73
2023/03/13 03:10:24;;;;;;;11.22;6.95;;;;;;;0.78;65.57;98469.53;1739576;80;21049;-64
2023/03/13 03:12:50;;;;;;;9.63;6.62;;;;;;;0.79;65.59;98455.82;1737629;80;21029;-70
2023/03/13 03:15:18;;;;;;;11.88;7.33;;;;;;;0.78;65.99;98451.55;1698492;83;21026;-73
2023/03/13 03:17:47;;;;;;;12.93;6.97;;;;;;;0.81;65.93;98441.17;1733605;81;21010;-73
2023/03/13 03:20:14;;;;;;;11.50;7.22;;;;;;;0.80;65.96;98444.64;1737629;80;21098;-66
2023/03/13 03:22:41;;;;;;;13.58;8.35;;;;;;;0.79;66.24;98433.53;1683493;84;21050;-74
2023/03/13 03:25:08;;;;;;;13.58;8.75;;;;;;;0.78;66.33;98442.55;1698835;84;20956;-73
2023/03/13 03:27:35;;;;;;;;;;;;;;;0.81;66.48;98425.77;1695367;83;21101;-73
2023/03/13 03:30:04;;;;;;;15.55;9.03;;;;;;;0.84;66.64;98435.95;1698403;83;20129;-71
2023/03/13 03:32:30;;;;;;;16.73;8.83;;;;;;;0.80;66.87;98429.23;1698023;83;20985;-73
2023/03/13 03:34:57;;;;;;;14.73;8.60;;;;;;;0.83;66.83;98427.85;1694562;83;20974;-74
2023/03/13 03:37:24;;;;;;;17.45;9.60;;;;;;;0.84;66.97;98420.11;1698417;83;21055;-73
2023/03/13 03:39:51;;;;;;;15.40;9.85;;;;;;;0.86;67.14;98439.33;1696515;83;20964;-73
2023/03/13 03:42:17;;;;;;;15.45;9.58;;;;;;;0.86;67.26;98425.19;1730854;81;20978;-73
2023/03/13 03:44:44;;;;;;;17.10;9.18;;;;;;;0.87;67.22;98417.91;1735097;80;21058;-72
2023/03/13 03:47:11;;;;;;;20.65;10.90;;;;;;;0.85;67.52;98409.39;1695487;84;21545;-73
2023/03/13 03:49:37;;;;;;;13.72;9.65;;;;;;;0.82;67.62;98400.03;1736747;81;21009;-73
2023/03/13 03:52:05;;;;;;;15.25;9.88;;;;;;;0.72;67.66;98380.63;1733940;81;21601;-69
2023/03/13 03:54:32;;;;;;;18.05;10.15;;;;;;;0.81;67.80;98389.38;1735874;81;21171;-72
2023/03/13 03:56:59;;;;;;;15.63;9.48;;;;;;;0.82;67.99;98391.49;1732481;80;21088;-71
2023/03/13 03:59:25;;;;;;;14.78;10.05;;;;;;;0.82;68.08;98396.62;1700795;83;21120;-69
2023/03/13 04:01:52;;;;;;;23.70;11.25;;;;;;;0.85;68.17;98394.80;1736652;81;21046;-73
2023/03/13 04:04:19;;;;;;;16.70;11.03;;;;;;;0.85;68.28;98397.82;1724568;81;21045;-73
2023/03/13 04:06:46;;;;;;;19.98;10.75;;;;;;;0.84;68.37;98396.12;1725535;81;21613;-73
2023/03/13 04:09:12;;;;;;;18.23;11.12;;;;;;;0.88;68.66;98393.87;1721978;81;20956;-73
2023/03/13 04:11:39;;;;;;;16.62;10.20;;;;;;;0.91;68.71;98391.22;1723896;81;21010;-69
2023/03/13 04:14:05;;;;;;;19.23;11.40;;;;;;;0.93;68.84;98386.88;1721600;81;21101;-66
2023/03/13 04:16:32;;;;;;;18.43;11.10;;;;;;;0.98;68.97;98386.72;1722968;81;21065;-71
2023/03/13 04:18:59;;;;;;;21.87;10.50;;;;;;;1.01;69.07;98373.36;1724031;81;21005;-72
2023/03/13 04:21:25;;;;;;;22.75;11.83;;;;;;;1.04;69.12;98373.27;1721704;81;21088;-73
2023/03/13 04:23:52;;;;;;;22.07;12.18;;;;;;;1.01;69.04;98361.80;1726219;81;21018;-73
2023/03/13 04:26:19;;;;;;;22.80;12.53;;;;;;;1.03;69.17;98359.98;1726351;81;21567;-68
2023/03/13 04:28:45;;;;;;;19.40;11.25;;;;;;;1.01;69.33;98359.22;1722834;81;21002;-73
2023/03/13 04:31:12;;;;;;;21.40;12.05;;;;;;;1.01;69.39;98354.08;1723314;81;20959;-73
2023/03/13 04:33:38;;;;;;;21.03;11.87;;;;;;;1.01;69.58;98356.66;1724692;81;21117;-68
2023/03/13 04:36:07;;;;;;;19.80;12.03;;;;;;;1.01;69.75;98350.22;1724102;81;21023;-73
2023/03/13 04:38:35;;;;;;;20.95;11.97;;;;;;;1.03;69.80;98336.86;1723680;81;21066;-73
2023/03/13 04:41:02;;;;;;;20.02;11.95;;;;;;;0.99;70.09;98343.00;1725504;81;21131;-73
2023/03/13 04:43:29;;;;;;;20.00;12.13;;;;;;;0.98;70.11;98346.47;1723129;81;21526;-72
2023/03/13 04:45:55;;;;;;;17.80;11.78;;;;;;;0.98;70.09;98340.04;1722969;81;21006;-73
2023/03/13 04:48:22;;;;;;;22.13;12.13;;;;;;;0.99;70.41;98332.72;1722734;81;20986;-68
2023/03/13 04:50:50;;;;;;;19.87;11.30;;;;;;;1.03;70.51;98326.58;1724386;81;21496;-73
2023/03/13 04:53:17;;;;;;;21.60;12.07;;;;;;;1.05;70.44;98324.81;1725251;81;20947;-72
2023/03/13 04:55:44;;;;;;;21.20;12.23;;;;;;;1.02;70.66;98319.77;1723976;81;21039;-71
2023/03/13 04:58:11;;;;;;;25.23;13.60;;;;;;;1.06;70.86;98323.91;1726626;81;20980;-73
2023/03/13 05:00:40;;;;;;;20.23;12.95;;;;;;;1.08;70.94;98318.28;1718995;81;20991;-71
2023/03/13 05:03:06;;;;;;;20.10;12.68;;;;;;;1.08;70.96;98314.42;1724161;81;20983;-72
2023/03/13 05:05:34;;;;;;;22.93;13.05;;;;;;;1.09;71.10;98310.98;1723855;81;21032;-69
2023/03/13 05:08:02;;;;;;;22.48;13.15;;;;;;;1.08;71.33;98302.86;1723676;81;21587;-74
2023/03/13 05:10:28;;;;;;;24.77;12.98;;;;;;;1.08;71.50;98301.58;1721187;81;21046;-72
2023/03/13 05:12:55;;;;;;;20.88;12.98;;;;;;;1.09;71.57;98294.28;1720739;81;21049;-71
2023/03/13 05:15:21;;;;;;;20.55;12.37;;;;;;;1.09;71.66;98287.85;1724927;81;21718;-72
2023/03/13 05:17:48;;;;;;;19.48;12.15;;;;;;;1.12;71.89;98294.59;1722485;81;21487;-73
2023/03/13 05:20:15;;;;;;;20.35;12.68;;;;;;;1.18;72.02;98283.31;1723292;81;21003;-72
2023/03/13 05:22:42;;;;;;;19.52;12.43;;;;;;;1.20;72.04;98280.22;1722292;81;21440;-73
2023/03/13 05:25:09;;;;;;;18.62;12.55;;;;;;;1.23;72.12;98278.83;1724957;81;20967;-70
2023/03/13 05:27:35;;;;;;;22.60;13.08;;;;;;;1.23;72.30;98283.97;1722502;81;20952;-73
2023/03/13 05:30:04;;;;;;;20.05;12.37;;;;;;;1.25;72.41;98269.34;1722882;81;21022;-70
2023/03/13 05:32:32;;;;;;;17.55;12.63;;;;;;;1.28;72.51;98270.08;1720797;81;20936;-72
2023/03/13 05:34:59;;;;;;;20.12;12.85;;;;;;;1.32;72.54;98268.27;1720865;81;21520;-69
2023/03/13 05:37:25;;;;;;;20.55;14.03;;;;;;;1.32;72.82;98268.27;1724066;81;21506;-69
2023/03/13 05:39:52;;;;;;;22.35;13.60;;;;;;;1.36;72.86;98267.26;1721841;81;21478;-75
2023/03/13 05:42:19;;;;;;;21.42;12.85;;;;;;;1.38;73.08;98259.50;1722959;81;22366;-72
2023/03/13 05:44:45;;;;;;;21.97;13.35;;;;;;;1.35;73.27;98254.02;1725195;81;21038;-74
2023/03/13 05:47:12;;;;;;;21.17;12.70;;;;;;;1.38;73.33;98257.77;1725570;81;21017;-74
2023/03/13 05:49:38;;;;;;;24.72;14.30;;;;;;;1.38;73.37;98259.05;1724080;81;21026;-72
2023/03/13 05:52:07;;;;;;;25.90;14.33;;;;;;;1.40;73.62;98261.14;1735093;80;21660;-70
2023/03/13 05:54:34;;;;;;;24.75;13.60;;;;;;;1.44;73.64;98248.55;1733241;80;21081;-73
2023/03/13 05:57:00;;;;;;;24.52;13.55;;;;;;;1.47;73.76;98251.02;1739051;80;21078;-72
2023/03/13 05:59:27;;;;;;;19.20;13.40;;;;;;;1.52;73.88;98249.59;1740803;80;21563;-74
2023/03/13 06:01:54;;;;;;;24.12;13.50;;;;;;;1.54;74.01;98251.22;1742419;80;21010;-70
2023/03/13 06:04:20;;;;;;;19.47;13.07;;;;;;;1.58;74.10;98248.54;1738679;80;21093;-72
2023/03/13 06:06:47;;;;;;;22.85;12.85;;;;;;;1.61;74.21;98245.86;1742075;80;21046;-68
2023/03/13 06:09:14;;;;;;;22.10;13.98;;;;;;;1.63;74.24;98238.94;1738434;80;21105;-69
2023/03/13 06:11:41;;;;;;;24.70;13.15;;;;;;;1.65;74.46;98231.98;1740086;80;21675;-68
2023/03/13 06:14:11;;;;;;;19.23;13.43;;;;;;;1.69;74.57;98236.14;1732988;80;21093;-67
2023/03/13 06:16:38;;;;;;;26.80;14.10;;;;;;;1.73;74.75;98224.38;1740792;80;21113;-69
2023/03/13 06:19:12;;;;;;;25.40;13.65;;;;;;;1.79;74.85;98214.31;1739486;80;21058;-66
2023/03/13 06:21:39;;;;;;;21.40;14.15;;;;;;;1.85;75.11;98222.27;1737232;80;21137;-69
2023/03/13 06:24:06;;;;;;;21.97;14.53;;;;;;;1.92;75.09;98216.84;1737661;80;21054;-69
2023/03/13 06:26:33;;;;;;;21.77;13.63;;;;;;;1.96;75.16;98214.99;1738262;80;21112;-69
2023/03/13 06:29:03;;;;;;;23.45;13.40;;;;;;;2.00;75.16;98208.40;1736301;80;23237;-65
2023/03/13 06:31:29;;;;;;;20.55;13.83;;;;;;;2.04;75.27;98205.70;1742579;81;21042;-65
2023/03/13 06:33:56;;;;;;;23.35;13.05;;;;;;;2.07;75.43;98208.17;1746059;80;21013;-64
2023/03/13 06:36:24;;;;;;;20.17;12.15;;;;;;;2.11;75.57;98196.88;1736647;81;21093;-64
2023/03/13 06:38:54;;;;;;;21.70;12.30;;;;;;;2.16;75.59;98200.13;1745387;80;21028;-65
2023/03/13 06:41:23;;;;;;;20.57;12.33;;;;;;;2.19;75.82;98197.43;1744522;81;21054;-65
2023/03/13 06:43:49;;;;;;;25.10;13.25;;;;;;;2.23;75.82;98200.27;1739550;81;21066;-66
2023/03/13 06:46:21;;;;;;;20.17;12.50;;;;;;;2.26;76.02;98188.56;1737571;80;20995;-65
2023/03/13 06:48:48;;;;;;;20.25;12.15;;;;;;;2.32;76.24;98183.16;1731145;81;21012;-65
2023/03/13 06:51:17;;;;;;;;;;;;;;;2.40;76.17;98173.41;1724755;82;20961;-65
2023/03/13 06:53:44;;;;;;;18.55;11.80;;;;;;;2.45;76.39;98177.94;1725003;82;20148;-65
2023/03/13 06:56:13;;;;;;;17.85;11.40;;;;;;;2.49;76.40;98176.52;1726742;82;20951;-65
2023/03/13 06:58:40;;;;;;;20.30;11.63;;;;;;;2.54;76.57;98174.61;1722715;82;20972;-66
2023/03/13 07:01:12;;;;;;;19.30;12.40;;;;;;;2.64;76.78;98163.05;1726372;82;21077;-66
2023/03/13 07:03:40;;;;;;;17.75;11.38;;;;;;;2.74;76.92;98166.91;1729432;81;21521;-65
2023/03/13 07:06:10;;;;;;;16.93;11.03;;;;;;;2.80;76.95;98171.84;1727166;81;21105;-62
2023/03/13 07:08:37;;;;;;;21.27;12.85;;;;;;;2.91;77.08;98167.09;1731989;81;21042;-65
2023/03/13 07:11:08;;;;;;;15.00;11.30;;;;;;;2.99;77.02;98166.75;1725478;81;21565;-64
2023/03/13 07:13:37;;;;;;;17.30;10.70;;;;;;;3.07;77.31;98156.96;1724498;82;21539;-64
2023/03/13 07:16:08;;;;;;;16.30;10.85;;;;;;;3.20;77.37;98154.72;1727003;81;21058;-63
2023/03/13 07:18:35;;;;;;;14.73;10.20;;;;;;;3.30;77.43;98146.95;1726690;81;21107;-65
2023/03/13 07:21:04;;;;;;;14.93;10.78;;;;;;;3.40;77.56;98149.16;1728113;82;21007;-67
2023/03/13 07:23:33;;;;;;;14.85;10.40;;;;;;;3.53;77.63;98143.86;1733753;81;21426;-65
2023/03/13 07:26:07;;;;;;;14.98;10.05;;;;;;;3.60;77.62;98145.25;1725249;81;21051;-67
2023/03/13 07:28:33;;;;;;;19.52;13.25;;;;;;;3.66;77.83;98137.22;1730047;82;20962;-64
2023/03/13 07:31:16;;;;;;;16.82;11.50;;;;;;;3.72;77.86;98134.36;1710596;82;20985;-66
2023/03/13 07:33:44;;;;;;;16.57;11.90;;;;;;;3.79;78.02;98130.61;1730855;81;21074;-66
2023/03/13 07:36:12;;;;;;;;;;;;;;;3.86;78.16;98122.58;1730480;82;21082;-66
2023/03/13 07:38:38;;;;;;;15.53;12.00;;;;;;;3.91;78.14;98114.18;1729089;81;20229;-66
2023/03/13 07:41:05;;;;;;;17.90;11.08;;;;;;;3.94;78.27;98110.16;1731296;81;21544;-66
2023/03/13 07:43:32;;;;;;;17.12;11.70;;;;;;;3.99;78.21;98108.21;1732269;81;21644;-66
2023/03/13 07:46:05;;;;;;;18.30;12.13;;;;;;;4.03;78.29;98105.85;1734757;81;21102;-66
2023/03/13 07:48:36;;;;;;;17.32;11.93;;;;;;;4.06;78.34;98107.00;1732592;81;21015;-66
2023/03/13 07:51:06;;;;;;;16.60;12.05;;;;;;;4.11;78.43;98107.62;1734093;81;20960;-66
2023/03/13 07:53:35;;;;;;;15.70;11.33;;;;;;;4.18;78.52;98087.07;1719329;81;21505;-66
2023/03/13 07:56:09;;;;;;;17.40;11.68;;;;;;;4.20;78.47;98093.01;1736279;81;21044;-66
2023/03/13 07:58:38;;;;;;;18.73;12.13;;;;;;;4.20;78.55;98086.55;1711522;82;21040;-66
2023/03/13 08:01:22;;;;;;;19.35;12.03;;;;;;;4.23;78.62;98086.41;1736081;82;21529;-66
2023/03/13 08:03:51;;;;;;;16.87;11.30;;;;;;;4.26;78.87;98081.09;1708497;82;20966;-66
2023/03/13 08:06:22;;;;;;;19.07;12.15;;;;;;;4.34;78.94;98085.03;1705105;83;20964;-65
2023/03/13 08:08:51;;;;;;;17.57;12.68;;;;;;;4.34;78.77;98077.28;1704747;82;21137;-65
2023/03/13 08:11:22;;;;;;;17.02;12.75;;;;;;;4.29;78.88;98077.52;1705722;82;20978;-65
2023/03/13 08:13:48;;;;;;;17.85;13.28;;;;;;;4.30;79.01;98068.02;1702897;82;21047;-65
2023/03/13 08:16:31;;;;;;;19.48;12.82;;;;;;;4.29;79.15;98074.11;1706482;83;21065;-66
2023/03/13 08:18:55;;;;;;;18.98;13.00;;;;;;;4.31;79.23;98070.97;1702142;82;21430;-65
2023/03/13 08:21:30;;;;;;;21.70;12.82;;;;;;;4.31;79.16;98067.09;1704984;82;21034;-65
2023/03/13 08:24:03;;;;;;;18.70;12.82;;;;;;;4.25;79.25;98069.05;1704326;83;21014;-66
2023/03/13 08:26:31;;;;;;;22.50;13.18;;;;;;;4.25;79.41;98061.31;1683194;83;21022;-66
2023/03/13 08:29:05;;;;;;;19.25;13.18;;;;;;;4.32;79.56;98048.12;1688342;83;20966;-65
2023/03/13 08:31:38;;;;;;;20.82;13.03;;;;;;;4.39;79.70;98052.06;1682842;84;21612;-66
2023/03/13 08:34:04;;;;;;;17.57;12.78;;;;;;;4.46;79.69;98053.45;1721363;81;21716;-65
2023/03/13 08:36:35;;;;;;;18.95;13.68;;;;;;;4.52;79.65;98035.05;1722180;82;21559;-65
2023/03/13 08:39:17;;;;;;;15.78;12.78;;;;;;;4.60;79.84;98032.92;1729991;82;21008;-65
2023/03/13 08:41:47;;;;;;;19.12;13.00;;;;;;;4.65;79.76;98027.06;1719215;81;21020;-65
2023/03/13 08:44:21;;;;;;;23.15;14.15;;;;;;;4.67;79.72;98031.68;1731525;81;21024;-65
2023/03/13 08:46:48;;;;;;;26.82;13.78;;;;;;;4.73;79.87;98035.70;1728052;81;20978;-65
2023/03/13 08:49:16;;;;;;;19.62;13.58;;;;;;;4.75;79.91;98033.06;1722334;81;21052;-65
2023/03/13 08:51:43;;;;;;;19.02;14.20;;;;;;;4.75;80.10;98027.89;1701262;82;21151;-65
2023/03/13 08:54:13;;;;;;;20.25;13.80;;;;;;;4.76;80.44;98021.36;1700270;83;22258;-65
2023/03/13 08:56:40;;;;;;;18.67;13.18;;;;;;;4.80;80.33;98015.56;1701306;82;21097;-65
2023/03/13 08:59:07;;;;;;;24.63;13.85;;;;;;;4.87;80.35;98013.03;1704566;82;21513;-66
2023/03/13 09:01:35;;;;;;;22.13;14.20;;;;;;;4.92;80.41;98007.17;1704641;82;21003;-67
2023/03/13 09:04:03;;;;;;;19.57;13.08;;;;;;;4.94;80.20;98010.52;1726333;80;21028;-64
2023/03/13 09:06:32;;;;;;;18.75;14.18;;;;;;;4.93;80.27;98002.39;1739481;80;20999;-66
2023/03/13 09:08:58;;;;;;;20.27;14.50;;;;;;;4.94;80.32;98002.77;1744741;80;21546;-66
2023/03/13 09:11:26;;;;;;;19.07;13.57;;;;;;;4.91;80.67;97987.41;1741747;81;21032;-65
2023/03/13 09:13:57;;;;;;;20.40;14.25;;;;;;;4.97;80.67;97993.55;1743202;80;21112;-66
2023/03/13 09:16:27;;;;;;;19.92;14.30;;;;;;;4.93;80.54;97984.29;1746149;81;21383;-66
2023/03/13 09:18:55;;;;;;;20.15;13.70;;;;;;;4.91;80.65;97983.06;1742200;80;21088;-65
2023/03/13 09:21:25;;;;;;;;;;;;;;;4.90;80.59;97975.37;1745651;80;21041;-65
2023/03/13 09:23:52;;;;;;;24.18;14.63;;;;;;;4.85;80.64;97972.21;1740985;81;20134;-65
2023/03/13 09:26:21;;;;;;;24.18;13.80;;;;;;;4.84;80.74;97970.52;1717124;81;21366;-65
2023/03/13 09:28:49;;;;;;;21.52;14.90;;;;;;;4.85;80.77;97967.04;1746078;81;21559;-64
2023/03/13 09:31:23;;;;;;;20.20;14.30;;;;;;;4.85;81.06;97954.94;1742978;80;21101;-64
2023/03/13 09:33:51;;;;;;;20.57;13.70;;;;;;;4.93;81.18;97951.95;1748242;80;20975;-66
2023/03/13 09:36:20;;;;;;;19.48;13.53;;;;;;;5.06;81.15;97945.20;1744464;80;21044;-66
2023/03/13 09:38:54;;;;;;;14.93;12.30;;;;;;;5.15;81.43;97947.31;1738185;80;21073;-64
2023/03/13 09:41:55;;;;;;;17.85;12.63;;;;;;;5.28;81.25;97938.88;1744396;80;21073;-65
2023/03/13 09:44:33;;;;;;;18.52;12.28;;;;;;;5.35;81.35;97937.64;1743816;80;20998;-65
2023/03/13 09:47:04;;;;;;;12.88;11.08;;;;;;;5.37;81.29;97930.14;1742288;80;21029;-66
2023/03/13 09:49:41;;;;;;;15.38;11.70;;;;;;;5.44;81.50;97919.02;1740378;81;21014;-64
2023/03/13 09:52:26;;;;;;;14.75;10.50;;;;;;;5.41;81.42;97915.77;1737013;80;21079;-65
2023/03/13 09:55:02;;;;;;;15.35;10.88;;;;;;;5.44;81.59;97912.55;1735170;81;21024;-65
2023/03/13 09:57:45;;;;;;;15.15;10.80;;;;;;;5.44;81.70;97907.37;1743139;80;21102;-65
2023/03/13 10:00:20;;;;;;;12.80;10.58;;;;;;;5.49;81.84;97900.62;1740307;80;21060;-65
2023/03/13 10:03:01;;;;;;;13.83;10.03;;;;;;;5.51;81.88;97908.68;1742778;80;21045;-64
2023/03/13 10:05:30;;;;;;;19.65;10.28;;;;;;;5.52;81.87;97903.89;1724712;82;21511;-64
2023/03/13 10:08:14;;;;;;;15.25;10.25;;;;;;;5.54;82.04;97896.85;1725505;82;21049;-65
2023/03/13 10:11:15;;;;;;;11.15;9.08;;;;;;;5.64;82.25;97884.71;1697162;83;21481;-65
2023/03/13 10:13:56;;;;;;;12.85;8.40;;;;;;;5.71;82.09;97884.72;1690388;83;21627;-64
2023/03/13 10:16:50;;;;;;;10.40;8.20;;;;;;;5.66;81.93;97873.78;1658903;83;22145;-65
2023/03/13 10:19:21;;;;;;;11.08;8.28;;;;;;;5.61;82.05;97871.01;1694684;83;21115;-65
2023/03/13 10:21:52;;;;;;;12.75;7.78;;;;;;;5.61;82.26;97863.70;1694476;83;21139;-65
2023/03/13 10:24:33;;;;;;;9.63;7.70;;;;;;;5.63;82.50;97858.42;1687846;83;21048;-65
2023/03/13 10:27:00;;;;;;;10.10;7.42;;;;;;;5.68;82.54;97856.41;1692394;83;21574;-65
2023/03/13 10:29:30;;;;;;;11.28;7.83;;;;;;;5.74;82.58;97856.06;1695282;83;21076;-65
2023/03/13 10:32:02;;;;;;;12.80;7.90;;;;;;;5.74;82.53;97843.11;1693370;83;21116;-64
2023/03/13 10:35:00;;;;;;;11.00;7.42;;;;;;;5.72;82.58;97845.80;1692523;83;21210;-65
2023/03/13 10:37:30;;;;;;;12.20;8.23;;;;;;;5.71;82.78;97839.41;1695756;83;21013;-65
2023/03/13 10:40:24;;;;;;;10.68;7.47;;;;;;;5.59;82.94;97831.42;1689264;83;20990;-65
2023/03/13 10:42:55;;;;;;;13.88;7.40;;;;;;;5.56;83.21;97827.71;1695675;83;20968;-65
2023/03/13 10:45:22;;;;;;;9.53;6.85;;;;;;;5.58;83.33;97808.22;1695901;82;21065;-65
2023/03/13 10:47:58;;;;;;;14.40;8.05;;;;;;;5.52;83.38;97813.29;1703627;81;21040;-65
2023/03/13 10:50:27;;;;;;;8.83;6.85;;;;;;;5.45;83.49;97804.20;1723945;81;20944;-64
2023/03/13 10:52:58;;;;;;;10.15;6.55;;;;;;;5.51;83.81;97789.60;1730742;81;20930;-67
2023/03/13 10:55:25;;;;;;;6.42;5.83;;;;;;;5.54;83.65;97785.53;1678190;83;21069;-65
2023/03/13 10:58:03;;;;;;;11.05;6.25;;;;;;;5.53;83.83;97772.70;1730464;81;21479;-66
2023/03/13 11:00:41;;;;;;;;;;;;;;;5.56;83.86;97775.94;1729301;81;21635;-66
2023/03/13 11:03:24;;;;;;;9.70;6.00;;;;;;;5.56;84.10;97759.58;1734188;82;20107;-66
2023/03/13 11:06:04;;;;;;;8.50;5.78;;;;;;;5.53;84.23;97755.41;1695426;83;21053;-67
2023/03/13 11:08:36;;;;;;;5.92;5.22;;;;;;;5.52;84.35;97756.34;1718908;82;21593;-67
2023/03/13 11:11:07;;;;;;;6.78;5.30;;;;;;;5.53;84.78;97752.82;1714453;82;20916;-67
2023/03/13 11:13:41;;;;;;;8.38;5.67;;;;;;;5.55;85.11;97745.80;1724628;81;21078;-65
2023/03/13 11:16:21;;;;;;;9.73;5.70;;;;;;;5.59;85.36;97742.56;1723387;81;21514;-67
2023/03/13 11:19:29;;;;;;;8.03;6.05;;;;;;;5.61;85.41;97732.50;1722358;81;20947;-66
2023/03/13 11:22:22;;;;;;;11.28;6.35;;;;;;;5.58;85.56;97722.33;1723778;81;21148;-66
2023/03/13 11:25:19;;;;;;;10.63;5.85;;;;;;;5.52;85.89;97715.39;1721424;81;21818;-67
2023/03/13 11:27:52;;;;;;;;;;;;;;;5.47;86.27;97709.17;1727459;81;20959;-67
2023/03/13 11:31:05;;;;;;;11.30;6.55;;;;;;;5.41;86.71;97694.02;1724462;81;20731;-67
2023/03/13 11:33:46;;;;;;;8.00;6.22;;;;;;;5.40;87.10;97697.50;1721798;82;21085;-67
2023/03/13 11:36:47;;;;;;;7.60;5.42;;;;;;;5.39;87.33;97691.97;1701715;82;21208;-66
2023/03/13 11:39:57;;;;;;;7.87;5.65;;;;;;;5.34;87.65;97684.93;1701669;82;21012;-64
2023/03/13 11:42:56;;;;;;;11.65;6.67;;;;;;;5.35;88.02;97678.85;1725443;81;21643;-65
2023/03/13 11:45:51;;;;;;;8.45;5.87;;;;;;;5.36;88.32;97677.92;1722103;81;21485;-65
2023/03/13 11:48:26;;;;;;;10.32;6.12;;;;;;;5.32;88.94;97659.59;1640924;84;21651;-67
2023/03/13 11:51:12;;;;;;;9.10;5.60;;;;;;;5.34;89.10;97660.34;1641494;85;21731;-67
2023/03/13 11:54:02;;;;;;;10.15;5.55;;;;;;;5.34;89.25;97665.52;1640608;85;21055;-64